Time;durP1;ratioP1;P1;durP2;ratioP2;P2;SDS_P1;SDS_P2;PMS_P1;PMS_P2;Temp;Humidity;BMP_temperature;BMP_pressure;BME280_temperature;BME280_humidity;BME280_pressure;Samples;Min_cycle;Max_cycle;Signal;HPM_P1;HPM_P2
2022/02/22 00:00:46;;;;;;;;;10.00;8.75;;;;;11.92;56.10;101777.00;2071317;28;48095;-58
2022/02/22 00:01:46;;;;;;;;;8.33;5.00;;;;;11.92;55.92;101780.56;2070896;28;47313;-58
2022/02/22 00:02:47;;;;;;;;;8.75;7.50;;;;;11.91;55.87;101776.13;2070680;28;47674;-57
2022/02/22 00:03:48;;;;;;;;;11.20;7.80;;;;;11.89;55.91;101777.03;2071311;28;47698;-55
2022/02/22 00:04:48;;;;;;;;;9.25;8.50;;;;;11.89;56.00;101774.38;2071059;28;47498;-58
2022/02/22 00:05:49;;;;;;;;;10.00;7.00;;;;;11.89;56.21;101777.94;2071220;28;47548;-57
2022/02/22 00:06:49;;;;;;;;;9.25;8.25;;;;;11.88;56.17;101781.50;2071215;28;47965;-58
2022/02/22 00:07:50;;;;;;;;;10.75;10.00;;;;;11.88;56.02;101768.19;2071185;28;47426;-58
2022/02/22 00:08:50;;;;;;;;;9.75;7.75;;;;;11.88;56.08;101780.59;2071149;28;47819;-57
2022/02/22 00:09:50;;;;;;;;;9.75;9.50;;;;;11.86;56.33;101780.63;2069783;28;47433;-58
2022/02/22 00:10:51;;;;;;;;;7.75;5.50;;;;;11.86;56.12;101779.75;2069913;28;47929;-57
2022/02/22 00:11:51;;;;;;;;;8.00;8.00;;;;;11.86;56.23;101777.09;2071161;28;47521;-59
2022/02/22 00:12:52;;;;;;;;;11.00;7.25;;;;;11.87;56.15;101769.09;2070985;28;48002;-59
2022/02/22 00:13:53;;;;;;;;;9.25;5.25;;;;;11.86;56.13;101772.66;2071321;28;46997;-59
2022/02/22 00:14:53;;;;;;;;;7.80;7.40;;;;;11.86;56.33;101766.44;2070905;28;47984;-57
2022/02/22 00:15:55;;;;;;;;;10.50;8.25;;;;;11.86;56.48;101779.75;2071125;28;47295;-58
2022/02/22 00:16:56;;;;;;;;;12.00;10.80;;;;;11.85;56.40;101776.22;2071257;28;47496;-57
2022/02/22 00:17:56;;;;;;;;;13.00;9.50;;;;;11.85;56.33;101770.00;2070940;28;47410;-58
2022/02/22 00:18:57;;;;;;;;;6.50;6.00;;;;;11.84;56.43;101778.88;2071241;28;47087;-59
2022/02/22 00:19:57;;;;;;;;;9.00;7.50;;;;;11.83;56.51;101778.00;2070682;28;47430;-58
2022/02/22 00:20:57;;;;;;;;;7.00;6.00;;;;;11.82;56.62;101776.25;2071109;28;47750;-59
2022/02/22 00:21:58;;;;;;;;;7.33;7.33;;;;;11.81;56.64;101779.78;2071142;28;47386;-59
2022/02/22 00:22:58;;;;;;;;;12.25;10.00;;;;;11.82;56.36;101775.38;2070953;28;47472;-59
2022/02/22 00:23:59;;;;;;;;;10.75;8.75;;;;;11.82;56.57;101781.56;2070767;28;47928;-57
2022/02/22 00:24:59;;;;;;;;;9.50;8.00;;;;;11.81;56.62;101779.78;2070799;28;48123;-58
2022/02/22 00:26:00;;;;;;;;;10.33;8.00;;;;;11.83;56.69;101777.13;2070975;28;46769;-58
2022/02/22 00:27:00;;;;;;;;;10.75;7.00;;;;;11.80;56.64;101783.31;2071058;28;47331;-54
2022/02/22 00:28:01;;;;;;;;;6.33;6.33;;;;;11.78;56.57;101780.66;2070407;28;47533;-58
2022/02/22 00:29:01;;;;;;;;;12.00;8.75;;;;;11.76;56.77;101778.91;2071288;28;46854;-58
2022/02/22 00:30:02;;;;;;;;;8.50;6.75;;;;;11.75;56.56;101777.16;2070838;28;47572;-56
2022/02/22 00:31:03;;;;;;;;;12.40;8.20;;;;;11.75;56.77;101782.47;2070448;28;47780;-58
2022/02/22 00:32:04;;;;;;;;;10.50;8.50;;;;;11.75;56.88;101782.47;2070159;28;47659;-58
2022/02/22 00:33:04;;;;;;;;;9.60;8.00;;;;;11.75;56.92;101790.44;2070774;28;47972;-58
2022/02/22 00:34:06;;;;;;;;;12.00;9.50;;;;;11.75;56.64;101788.66;2070943;28;47699;-58
2022/02/22 00:35:13;;;;;;;;;8.80;7.80;;;;;11.74;57.01;101780.72;2071103;28;47538;-58
2022/02/22 00:36:13;;;;;;;;;12.20;8.80;;;;;11.73;56.81;101787.81;2070827;28;47349;-59
2022/02/22 00:37:14;;;;;;;;;11.00;9.25;;;;;11.73;56.84;101778.94;2070971;28;47635;-58
2022/02/22 00:38:15;;;;;;;;;6.67;6.67;;;;;11.72;57.04;101779.84;2070757;28;47401;-58
2022/02/22 00:39:15;;;;;;;;;9.00;6.80;;;;;11.72;56.70;101779.84;2070880;28;48245;-58
2022/02/22 00:40:16;;;;;;;;;6.00;6.00;;;;;11.71;57.15;101794.03;2061386;28;47429;-58
2022/02/22 00:41:17;;;;;;;;;8.40;6.40;;;;;11.72;57.06;101790.50;2061583;28;47535;-59
2022/02/22 00:42:17;;;;;;;;;9.25;8.25;;;;;11.71;56.71;101791.38;2071723;28;47200;-58
2022/02/22 00:43:18;;;;;;;;;9.00;7.50;;;;;11.69;57.09;101786.09;2072364;28;48066;-59
2022/02/22 00:44:18;;;;;;;;;8.25;8.25;;;;;11.69;57.06;101794.06;2072283;28;47536;-58
2022/02/22 00:45:19;;;;;;;;;8.00;6.67;;;;;11.68;57.05;101789.59;2072164;28;47858;-57
2022/02/22 00:46:19;;;;;;;;;11.75;8.25;;;;;11.67;57.03;101786.97;2072127;28;47946;-57
2022/02/22 00:47:20;;;;;;;;;11.00;7.25;;;;;11.66;57.24;101786.09;2072265;28;47968;-58
2022/02/22 00:48:20;;;;;;;;;9.75;6.75;;;;;11.66;57.18;101791.41;2072622;28;45936;-57
2022/02/22 00:49:20;;;;;;;;;8.00;8.00;;;;;11.66;57.29;101795.84;2072410;28;47576;-54
2022/02/22 00:50:21;;;;;;;;;8.25;8.25;;;;;11.67;57.10;101786.97;2072536;28;47103;-57
2022/02/22 00:51:22;;;;;;;;;12.50;8.50;;;;;11.65;57.23;101788.75;2072364;28;47985;-59
2022/02/22 00:52:22;;;;;;;;;12.00;10.00;;;;;11.64;57.17;101789.66;2072414;28;47584;-55
2022/02/22 00:53:23;;;;;;;;;8.33;5.00;;;;;11.64;57.39;101779.91;2072058;28;48097;-58
2022/02/22 00:54:23;;;;;;;;;11.00;10.00;;;;;11.65;57.15;101784.31;2072394;28;47408;-58
2022/02/22 00:55:25;;;;;;;;;6.00;6.00;;;;;11.64;57.14;101785.22;2062684;28;47459;-59
2022/02/22 00:56:25;;;;;;;;;12.00;7.60;;;;;11.64;57.14;101795.88;2062997;28;47761;-57
2022/02/22 00:57:25;;;;;;;;;6.75;6.75;;;;;11.65;57.36;101792.31;2072480;28;47585;-58
2022/02/22 00:58:26;;;;;;;;;4.75;4.00;;;;;11.65;57.18;101804.72;2072451;28;47481;-57
2022/02/22 00:59:26;;;;;;;;;9.00;6.75;;;;;11.64;57.31;101795.88;2072424;28;47571;-58
2022/02/22 01:00:27;;;;;;;;;8.75;8.75;;;;;11.64;57.40;101801.19;2072287;28;47653;-58
2022/02/22 01:01:27;;;;;;;;;9.75;8.00;;;;;11.64;57.25;101793.19;2072329;28;48008;-58
2022/02/22 01:02:27;;;;;;;;;9.25;8.50;;;;;11.64;57.24;101797.63;2072491;28;47431;-55
2022/02/22 01:03:28;;;;;;;;;7.00;6.50;;;;;11.62;57.31;101802.97;2072236;28;48311;-59
2022/02/22 01:04:28;;;;;;;;;8.00;7.67;;;;;11.62;57.16;101799.44;2072310;28;47515;-57
2022/02/22 01:05:29;;;;;;;;;9.33;5.67;;;;;11.61;57.26;101800.34;2072356;28;47685;-54
2022/02/22 01:06:29;;;;;;;;;7.33;5.67;;;;;11.61;57.18;101795.00;2072270;28;47955;-59
2022/02/22 01:07:30;;;;;;;;;8.67;8.00;;;;;11.60;57.34;101793.25;2072323;28;47993;-57
2022/02/22 01:08:30;;;;;;;;;6.00;5.00;;;;;11.60;57.55;101794.13;2072072;28;47574;-57
2022/02/22 01:09:31;;;;;;;;;10.00;9.00;;;;;11.59;57.48;101796.81;2062959;28;48025;-58
2022/02/22 01:10:32;;;;;;;;;8.00;6.00;;;;;11.58;57.54;101795.94;2062795;28;48067;-57
2022/02/22 01:11:34;;;;;;;;;9.00;6.75;;;;;11.58;57.62;101800.38;2071996;28;47838;-57
2022/02/22 01:12:35;;;;;;;;;8.25;8.00;;;;;11.57;57.54;101801.25;2072314;28;47843;-57
2022/02/22 01:13:35;;;;;;;;;8.67;7.33;;;;;11.57;57.58;101801.25;2071981;28;47724;-55
2022/02/22 01:14:36;;;;;;;;;9.67;8.67;;;;;11.55;57.65;101808.34;2072463;28;47740;-57
2022/02/22 01:15:36;;;;;;;;;10.00;6.67;;;;;11.54;57.63;101799.50;2071901;28;47897;-57
2022/02/22 01:16:37;;;;;;;;;10.67;9.00;;;;;11.55;57.59;101806.56;2072135;28;47493;-58
2022/02/22 01:17:37;;;;;;;;;10.67;9.00;;;;;11.55;57.48;101803.03;2072209;28;47619;-59
2022/02/22 01:18:37;;;;;;;;;9.67;8.67;;;;;11.54;57.52;101803.91;2072165;28;47595;-59
2022/02/22 01:19:38;;;;;;;;;9.67;6.33;;;;;11.54;57.71;101802.16;2071926;28;47995;-58
2022/02/22 01:20:38;;;;;;;;;11.33;7.67;;;;;11.54;57.63;101812.78;2072467;28;47642;-58
2022/02/22 01:21:39;;;;;;;;;9.00;6.33;;;;;11.54;57.26;101815.44;2072097;28;47072;-58
2022/02/22 01:22:40;;;;;;;;;8.67;8.00;;;;;11.54;57.55;101822.53;2072455;28;47951;-56
2022/02/22 01:23:41;;;;;;;;;8.25;8.25;;;;;11.54;57.44;101818.09;2071759;28;47725;-59
2022/02/22 01:24:41;;;;;;;;;8.67;7.00;;;;;11.54;57.50;101828.72;2072771;28;45598;-57
2022/02/22 01:25:43;;;;;;;;;10.67;9.67;;;;;11.53;57.54;101823.44;2071886;28;47418;-57
2022/02/22 01:26:43;;;;;;;;;10.00;7.25;;;;;11.52;57.70;101814.56;2072716;28;47488;-58
2022/02/22 01:27:44;;;;;;;;;9.33;6.33;;;;;11.52;57.59;101814.56;2073216;28;48274;-57
2022/02/22 01:28:44;;;;;;;;;9.00;7.67;;;;;11.53;57.71;101820.78;2072274;28;48026;-58
2022/02/22 01:29:45;;;;;;;;;8.33;6.33;;;;;11.50;57.60;101811.06;2072281;28;47720;-58
2022/02/22 01:30:45;;;;;;;;;9.67;7.33;;;;;11.52;57.86;101808.38;2072119;28;46999;-59
2022/02/22 01:31:46;;;;;;;;;10.00;8.33;;;;;11.50;57.62;101816.38;2062430;28;47550;-56
2022/02/22 01:32:47;;;;;;;;;8.33;5.33;;;;;11.49;57.75;101815.50;2063135;28;47507;-59
2022/02/22 01:33:47;;;;;;;;;5.33;5.33;;;;;11.48;57.65;101812.84;2071914;28;47823;-57
2022/02/22 01:34:47;;;;;;;;;11.67;10.67;;;;;11.48;57.74;101815.50;2072309;28;46614;-54
2022/02/22 01:35:48;;;;;;;;;6.33;5.00;;;;;11.46;57.67;101807.53;2072156;28;46662;-58
2022/02/22 01:36:49;;;;;;;;;12.67;9.00;;;;;11.46;57.76;101812.84;2071685;28;47814;-56
2022/02/22 01:37:49;;;;;;;;;12.67;6.00;;;;;11.45;57.68;101808.44;2071277;28;47843;-56
2022/02/22 01:38:53;;;;;;;;;9.00;6.67;;;;;11.46;57.93;101810.19;2071398;28;47843;-55
2022/02/22 01:39:54;;;;;;;;;7.75;7.75;;;;;11.46;57.79;101817.28;2071927;28;47919;-55
2022/02/22 01:40:56;;;;;;;;;7.00;6.33;;;;;11.45;57.67;101816.41;2071752;28;47620;-57
2022/02/22 01:41:57;;;;;;;;;8.75;7.50;;;;;11.46;57.66;101825.28;2072037;28;48030;-57
2022/02/22 01:42:57;;;;;;;;;10.67;9.00;;;;;11.44;57.86;101821.75;2072108;28;47588;-57
2022/02/22 01:43:59;;;;;;;;;9.33;9.33;;;;;11.42;57.87;101813.75;2072371;28;46010;-58
2022/02/22 01:44:59;;;;;;;;;8.75;8.25;;;;;11.41;58.00;101814.66;2072036;28;48243;-57
2022/02/22 01:46:00;;;;;;;;;10.00;9.00;;;;;11.40;57.90;101814.66;2072395;28;47530;-58
2022/02/22 01:47:03;;;;;;;;;9.33;7.00;;;;;11.40;58.00;101819.97;2071886;28;47374;-59
2022/02/22 01:48:04;;;;;;;;;8.50;6.50;;;;;11.38;58.12;101816.47;2072211;28;48026;-57
2022/02/22 01:49:05;;;;;;;;;7.67;6.00;;;;;11.39;58.10;101816.44;2071870;28;47779;-58
2022/02/22 01:50:07;;;;;;;;;9.00;8.00;;;;;11.39;58.26;101819.09;2072127;28;47982;-59
2022/02/22 01:51:08;;;;;;;;;10.75;7.75;;;;;11.38;57.80;101816.47;2072044;28;48169;-57
2022/02/22 01:52:09;;;;;;;;;10.33;8.33;;;;;11.37;58.02;101818.25;2071870;28;48090;-55
2022/02/22 01:53:10;;;;;;;;;9.25;8.00;;;;;11.36;58.12;101818.25;2071960;28;47618;-59
2022/02/22 01:54:10;;;;;;;;;11.00;8.33;;;;;11.36;58.14;101812.94;2071058;28;47604;-57
2022/02/22 01:55:11;;;;;;;;;10.00;7.00;;;;;11.34;57.90;101810.28;2071326;28;48100;-58
2022/02/22 01:56:12;;;;;;;;;8.00;7.00;;;;;11.35;58.08;101822.69;2071260;28;47754;-58
2022/02/22 01:57:13;;;;;;;;;9.25;6.25;;;;;11.34;58.25;101814.72;2071572;28;47819;-59
2022/02/22 01:58:14;;;;;;;;;7.50;6.75;;;;;11.33;58.04;101818.28;2072149;28;47893;-58
2022/02/22 01:59:14;;;;;;;;;9.67;7.00;;;;;11.32;58.16;101808.56;2071758;28;46520;-58
2022/02/22 02:00:15;;;;;;;;;11.00;8.00;;;;;11.30;58.05;101808.53;2071715;28;47933;-57
2022/02/22 02:01:16;;;;;;;;;11.50;9.00;;;;;11.29;58.21;101809.44;2072045;28;48340;-57
2022/02/22 02:02:17;;;;;;;;;7.25;6.50;;;;;11.29;58.04;101809.44;2071672;28;47390;-57
2022/02/22 02:03:18;;;;;;;;;10.00;7.33;;;;;11.29;58.37;101819.16;2071912;28;45640;-57
2022/02/22 02:04:19;;;;;;;;;12.50;8.00;;;;;11.29;58.27;101827.16;2071819;28;47351;-58
2022/02/22 02:05:19;;;;;;;;;10.33;7.67;;;;;11.28;58.39;101825.38;2071713;28;47641;-58
2022/02/22 02:06:20;;;;;;;;;13.33;10.00;;;;;11.27;58.33;101819.19;2072012;28;47404;-56
2022/02/22 02:07:21;;;;;;;;;8.50;6.50;;;;;11.27;58.41;101820.97;2063525;28;47743;-56
2022/02/22 02:08:21;;;;;;;;;10.00;9.00;;;;;11.26;58.36;101808.56;2066919;28;47703;-57
2022/02/22 02:09:21;;;;;;;;;9.00;6.00;;;;;11.27;58.32;101816.53;2072090;28;47919;-55
2022/02/22 02:10:22;;;;;;;;;8.67;6.33;;;;;11.27;58.28;101819.19;2071589;28;47612;-56
2022/02/22 02:11:22;;;;;;;;;10.00;7.00;;;;;11.27;58.41;101816.53;2071859;28;47639;-56
2022/02/22 02:12:23;;;;;;;;;11.67;8.33;;;;;11.27;58.69;101805.91;2070503;28;47972;-60
2022/02/22 02:13:25;;;;;;;;;8.00;7.67;;;;;11.29;58.39;101808.53;2070850;28;47164;-58
2022/02/22 02:14:27;;;;;;;;;11.75;7.25;;;;;11.29;58.40;101812.09;2071871;28;47922;-57
2022/02/22 02:15:27;;;;;;;;;10.75;8.75;;;;;11.29;58.20;101817.41;2070810;28;47354;-58
2022/02/22 02:16:28;;;;;;;;;9.00;7.00;;;;;11.30;58.52;101812.97;2070932;28;48256;-58
2022/02/22 02:17:28;;;;;;;;;10.00;7.00;;;;;11.29;58.55;101817.41;2071688;28;47634;-58
2022/02/22 02:18:29;;;;;;;;;11.00;10.67;;;;;11.30;58.47;101826.25;2071808;28;47224;-58
2022/02/22 02:19:29;;;;;;;;;8.00;7.00;;;;;11.29;58.34;101821.84;2071641;28;47435;-58
2022/02/22 02:20:30;;;;;;;;;9.33;8.33;;;;;11.28;58.48;101820.94;2071706;28;47108;-58
2022/02/22 02:21:31;;;;;;;;;7.00;7.00;;;;;11.28;58.28;101820.94;2072104;28;48028;-58
2022/02/22 02:22:32;;;;;;;;;13.00;9.75;;;;;11.29;58.42;101819.16;2070122;28;47581;-58
2022/02/22 02:23:33;;;;;;;;;9.00;6.75;;;;;11.28;58.58;101820.94;2070853;28;47624;-59
2022/02/22 02:24:33;;;;;;;;;15.67;9.67;;;;;11.29;58.54;101827.16;2071762;28;47675;-57
2022/02/22 02:25:33;;;;;;;;;12.33;11.00;;;;;11.27;58.33;101824.50;2071486;28;47245;-59
2022/02/22 02:26:34;;;;;;;;;12.00;9.67;;;;;11.28;58.42;101820.06;2071909;28;47017;-57
2022/02/22 02:27:34;;;;;;;;;9.67;7.67;;;;;11.28;58.75;101828.94;2079116;28;47737;-58
2022/02/22 02:28:35;;;;;;;;;14.33;11.00;;;;;11.28;58.46;101836.91;2069860;28;46465;-59
2022/02/22 02:29:35;;;;;;;;;10.00;7.33;;;;;11.27;58.52;101831.59;2063369;28;48040;-58
2022/02/22 02:30:36;;;;;;;;;8.33;7.00;;;;;11.26;58.76;101835.16;2061334;28;47542;-59
2022/02/22 02:31:38;;;;;;;;;10.67;8.00;;;;;11.26;58.13;101836.03;2062435;28;47507;-58
2022/02/22 02:32:39;;;;;;;;;10.75;8.50;;;;;11.26;58.42;101836.03;2062349;28;48029;-58
2022/02/22 02:33:39;;;;;;;;;14.00;8.33;;;;;11.26;58.42;101832.50;2056659;28;47968;-59
2022/02/22 02:34:39;;;;;;;;;7.00;5.33;;;;;11.25;58.61;101839.56;2071978;28;47420;-58
2022/02/22 02:35:40;;;;;;;;;11.33;10.00;;;;;11.24;58.73;101842.25;2071717;28;47779;-57
2022/02/22 02:36:43;;;;;;;;;7.00;7.00;;;;;11.22;58.70;101839.59;2071926;28;47538;-59
2022/02/22 02:37:43;;;;;;;;;9.00;8.75;;;;;11.22;58.44;101836.94;2071567;28;47727;-58
2022/02/22 02:38:44;;;;;;;;;8.00;7.33;;;;;11.22;58.63;101836.06;2071816;28;47525;-58
2022/02/22 02:39:44;;;;;;;;;9.67;8.00;;;;;11.20;58.58;101829.00;2072070;28;48096;-58
2022/02/22 02:40:45;;;;;;;;;11.33;7.67;;;;;11.19;58.85;101835.19;2071638;28;47594;-58
2022/02/22 02:41:46;;;;;;;;;6.33;5.67;;;;;11.20;58.69;101830.78;2071565;28;47497;-57
2022/02/22 02:42:47;;;;;;;;;9.25;9.25;;;;;11.18;58.69;101827.25;2071574;28;47744;-57
2022/02/22 02:43:47;;;;;;;;;12.33;8.00;;;;;11.18;58.71;101832.56;2072016;28;45590;-57
2022/02/22 02:44:48;;;;;;;;;8.33;6.33;;;;;11.17;58.42;101834.31;2071658;28;48094;-55
2022/02/22 02:45:49;;;;;;;;;10.50;8.00;;;;;11.17;58.87;101836.06;2071673;28;47333;-57
2022/02/22 02:46:50;;;;;;;;;7.33;6.67;;;;;11.17;58.52;101830.75;2071545;28;47850;-57
2022/02/22 02:47:50;;;;;;;;;8.00;6.50;;;;;11.16;58.75;101837.84;2071308;28;47833;-57
2022/02/22 02:48:53;;;;;;;;;8.67;7.33;;;;;11.15;58.46;101838.75;2071466;28;47227;-56
2022/02/22 02:49:53;;;;;;;;;9.75;8.25;;;;;11.13;58.69;101831.69;2071272;28;48083;-57
2022/02/22 02:50:53;;;;;;;;;10.33;8.00;;;;;11.10;58.57;101837.91;2071533;28;47660;-57
2022/02/22 02:51:54;;;;;;;;;9.33;7.67;;;;;11.09;58.60;101845.88;2071375;28;48100;-57
2022/02/22 02:52:54;;;;;;;;;10.00;8.33;;;;;11.08;58.52;101846.78;2070670;28;47054;-58
2022/02/22 02:53:55;;;;;;;;;11.33;10.00;;;;;11.06;58.54;101851.22;2070810;28;47572;-59
2022/02/22 02:54:57;;;;;;;;;9.75;6.25;;;;;11.03;58.72;101852.09;2071591;28;47815;-59
2022/02/22 02:55:57;;;;;;;;;8.25;5.25;;;;;11.02;58.64;101863.63;2071092;28;47970;-58
2022/02/22 02:56:58;;;;;;;;;8.50;7.00;;;;;11.01;58.96;101872.47;2071639;28;47831;-58
2022/02/22 02:57:58;;;;;;;;;11.67;9.33;;;;;11.00;58.76;101867.19;2071209;28;47462;-58
2022/02/22 02:59:00;;;;;;;;;10.00;6.00;;;;;10.98;58.92;101864.53;2071688;28;46122;-58
2022/02/22 03:00:01;;;;;;;;;16.25;10.00;;;;;10.96;58.81;101862.78;2071109;28;47489;-59
2022/02/22 03:01:01;;;;;;;;;9.00;7.33;;;;;10.95;58.77;101861.91;2071491;28;46665;-58
2022/02/22 03:02:02;;;;;;;;;9.67;9.33;;;;;10.96;58.87;101866.31;2071558;28;48517;-56
2022/02/22 03:03:02;;;;;;;;;17.67;9.00;;;;;10.95;58.89;101867.22;2071569;28;48224;-60
2022/02/22 03:04:04;;;;;;;;;9.67;7.00;;;;;10.96;59.23;101866.31;2071565;28;47413;-57
2022/02/22 03:05:06;;;;;;;;;3.00;1.00;;;;;10.94;59.09;101861.91;2061574;28;47995;-57
2022/02/22 03:06:07;;;;;;;;;17.00;10.75;;;;;10.95;58.98;101875.19;2061986;28;47641;-56
2022/02/22 03:07:07;;;;;;;;;9.33;7.33;;;;;10.92;58.97;101867.19;2071636;28;47663;-58
2022/02/22 03:08:08;;;;;;;;;7.00;6.00;;;;;10.92;59.01;101875.16;2071383;28;47499;-58
2022/02/22 03:09:09;;;;;;;;;9.33;7.67;;;;;10.91;58.99;101879.59;2071529;28;47840;-57
2022/02/22 03:10:09;;;;;;;;;7.75;7.75;;;;;10.90;58.94;101876.97;2071103;28;45856;-57
2022/02/22 03:11:10;;;;;;;;;7.33;6.33;;;;;10.90;59.15;101877.84;2071313;28;47643;-56
2022/02/22 03:12:11;;;;;;;;;7.00;7.00;;;;;10.88;59.04;101861.03;2071662;28;48104;-58
2022/02/22 03:13:11;;;;;;;;;13.33;6.00;;;;;10.89;58.87;101873.41;2071451;28;47141;-57
2022/02/22 03:14:12;;;;;;;;;13.33;11.00;;;;;10.88;58.97;101861.03;2071268;28;47512;-55
2022/02/22 03:15:12;;;;;;;;;8.67;8.00;;;;;10.86;58.98;101857.50;2071425;28;47646;-58
2022/02/22 03:16:13;;;;;;;;;11.00;6.33;;;;;10.86;58.94;101859.28;2071340;28;47523;-56
2022/02/22 03:17:13;;;;;;;;;11.67;6.67;;;;;10.87;58.91;101858.38;2071231;28;47645;-58
2022/02/22 03:18:14;;;;;;;;;12.00;9.67;;;;;10.87;59.12;101858.38;2071268;28;47866;-57
2022/02/22 03:19:14;;;;;;;;;7.33;7.00;;;;;10.87;59.07;101869.00;2071349;28;47647;-58
2022/02/22 03:20:15;;;;;;;;;11.00;8.33;;;;;10.86;58.99;101868.13;2071314;28;47641;-56
2022/02/22 03:21:15;;;;;;;;;9.33;7.67;;;;;10.86;59.04;101865.47;2071437;28;47662;-58
2022/02/22 03:22:16;;;;;;;;;10.00;9.00;;;;;10.85;58.87;101865.47;2071537;28;47730;-58
2022/02/22 03:23:19;;;;;;;;;9.33;7.33;;;;;10.83;58.99;101859.31;2071417;28;47294;-58
2022/02/22 03:24:19;;;;;;;;;9.25;8.50;;;;;10.84;59.17;101863.72;2071269;28;48266;-58
2022/02/22 03:25:20;;;;;;;;;13.00;8.00;;;;;10.82;59.13;101862.84;2071376;28;47461;-55
2022/02/22 03:26:20;;;;;;;;;14.00;8.33;;;;;10.80;58.93;101862.88;2071313;28;47992;-57
2022/02/22 03:27:21;;;;;;;;;7.00;4.33;;;;;10.79;59.35;101866.38;2077406;28;47471;-56
2022/02/22 03:28:21;;;;;;;;;16.00;10.33;;;;;10.79;58.82;101870.81;2072443;28;47230;-57
2022/02/22 03:29:22;;;;;;;;;13.67;9.00;;;;;10.76;59.32;101869.06;2071264;28;47801;-58
2022/02/22 03:30:23;;;;;;;;;12.33;9.67;;;;;10.75;59.06;101869.94;2071695;28;47697;-57
2022/02/22 03:31:23;;;;;;;;;8.67;8.67;;;;;10.74;59.17;101862.00;2071290;28;48184;-58
2022/02/22 03:32:23;;;;;;;;;12.00;8.00;;;;;10.74;59.08;101864.66;2071483;28;47514;-57
2022/02/22 03:33:24;;;;;;;;;11.33;8.00;;;;;10.72;59.26;101856.69;2070884;28;47626;-58
2022/02/22 03:34:24;;;;;;;;;7.67;7.67;;;;;10.71;59.43;101862.00;2070881;28;47476;-58
2022/02/22 03:35:25;;;;;;;;;10.33;8.33;;;;;10.70;59.44;101863.78;2071598;28;48062;-59
2022/02/22 03:36:25;;;;;;;;;16.33;11.00;;;;;10.70;59.38;101865.56;2071390;28;47371;-58
2022/02/22 03:37:26;;;;;;;;;10.33;9.33;;;;;10.68;59.45;101868.22;2070924;28;47420;-59
2022/02/22 03:38:27;;;;;;;;;16.00;9.00;;;;;10.69;59.50;101866.44;2071485;28;47761;-59
2022/02/22 03:39:27;;;;;;;;;12.25;11.75;;;;;10.69;59.19;101863.78;2071236;28;47715;-59
2022/02/22 03:40:28;;;;;;;;;12.00;9.00;;;;;10.68;59.46;101860.25;2061807;28;47837;-59
2022/02/22 03:41:29;;;;;;;;;9.67;8.00;;;;;10.67;59.32;101870.84;2062031;28;47830;-57
2022/02/22 03:42:29;;;;;;;;;9.00;6.33;;;;;10.67;59.43;101868.19;2071310;28;47896;-58
2022/02/22 03:43:30;;;;;;;;;14.00;10.00;;;;;10.65;59.61;101867.31;2071304;28;48119;-58
2022/02/22 03:44:30;;;;;;;;;8.33;8.33;;;;;10.65;59.78;101869.97;2071274;28;47123;-58
2022/02/22 03:45:31;;;;;;;;;10.00;8.00;;;;;10.66;59.81;101866.44;2070880;28;47780;-59
2022/02/22 03:46:31;;;;;;;;;10.67;8.00;;;;;10.64;59.50;101865.56;2070671;28;47924;-58
2022/02/22 03:47:31;;;;;;;;;10.33;8.00;;;;;10.65;59.72;101867.31;2071497;28;48134;-59
2022/02/22 03:48:32;;;;;;;;;17.33;11.00;;;;;10.65;59.73;101862.00;2071618;28;47663;-59
2022/02/22 03:49:32;;;;;;;;;13.00;10.67;;;;;10.66;59.87;101866.44;2071517;28;47819;-59
2022/02/22 03:50:33;;;;;;;;;11.00;9.25;;;;;10.66;59.98;101861.13;2071556;28;47445;-59
2022/02/22 03:51:34;;;;;;;;;14.50;10.50;;;;;10.66;59.85;101858.47;2071368;28;47517;-59
2022/02/22 03:52:35;;;;;;;;;12.00;9.33;;;;;10.66;59.76;101867.31;2071392;28;47652;-58
2022/02/22 03:53:35;;;;;;;;;9.00;9.00;;;;;10.66;59.47;101864.66;2071274;28;48092;-59
2022/02/22 03:54:36;;;;;;;;;10.33;9.67;;;;;10.64;59.52;101853.16;2071379;28;48092;-57
2022/02/22 03:55:36;;;;;;;;;10.67;10.00;;;;;10.65;59.75;101862.00;2071083;28;47885;-57
2022/02/22 03:56:36;;;;;;;;;11.00;7.00;;;;;10.63;59.53;101862.03;2071407;28;47898;-57
2022/02/22 03:57:38;;;;;;;;;14.00;8.00;;;;;10.65;59.81;101862.00;2071196;28;47287;-59
2022/02/22 03:58:38;;;;;;;;;10.00;8.00;;;;;10.64;59.81;101858.47;2071299;28;47708;-57
2022/02/22 03:59:38;;;;;;;;;17.50;10.75;;;;;10.63;59.87;101859.38;2071292;28;48158;-57
2022/02/22 04:00:39;;;;;;;;;10.00;9.33;;;;;10.64;59.99;101863.78;2071010;28;47628;-57
2022/02/22 04:01:39;;;;;;;;;6.67;6.67;;;;;10.64;59.70;101863.78;2071468;28;47463;-59
2022/02/22 04:02:40;;;;;;;;;7.00;7.00;;;;;10.65;59.41;101862.91;2071174;28;47931;-56
2022/02/22 04:03:40;;;;;;;;;10.00;10.00;;;;;10.65;59.75;101869.97;2071407;28;45807;-58
2022/02/22 04:04:41;;;;;;;;;13.33;10.00;;;;;10.65;59.67;101867.31;2070949;28;47716;-55
2022/02/22 04:05:46;;;;;;;;;8.33;7.67;;;;;10.66;59.86;101863.78;2071151;28;47797;-57
2022/02/22 04:06:46;;;;;;;;;12.00;10.25;;;;;10.67;59.74;101860.22;2070861;28;47840;-57
2022/02/22 04:07:48;;;;;;;;;9.00;8.33;;;;;10.67;59.92;101862.88;2071219;28;47565;-56
2022/02/22 04:08:48;;;;;;;;;13.50;10.75;;;;;10.65;59.98;101849.63;2070989;28;47820;-52
2022/02/22 04:09:49;;;;;;;;;10.00;10.00;;;;;10.67;59.76;101854.91;2071201;28;47227;-57
2022/02/22 04:10:50;;;;;;;;;9.00;8.33;;;;;10.66;60.01;101854.03;2070877;28;47830;-58
2022/02/22 04:11:50;;;;;;;;;13.00;9.75;;;;;10.67;59.73;101857.56;2071004;28;47662;-57
2022/02/22 04:12:51;;;;;;;;;9.00;8.00;;;;;10.66;59.87;101859.34;2071034;28;47500;-57
2022/02/22 04:13:51;;;;;;;;;9.33;8.00;;;;;10.66;60.10;101855.81;2071078;28;48289;-58
2022/02/22 04:14:52;;;;;;;;;8.33;7.33;;;;;10.67;59.94;101857.56;2070945;28;46924;-56
2022/02/22 04:15:52;;;;;;;;;9.33;7.00;;;;;10.66;59.85;101856.69;2071273;28;47825;-59
2022/02/22 04:16:52;;;;;;;;;12.50;8.50;;;;;10.66;59.89;101861.13;2061803;28;47337;-57
2022/02/22 04:17:53;;;;;;;;;10.33;10.33;;;;;10.66;59.87;101856.69;2063749;28;47644;-56
2022/02/22 04:18:53;;;;;;;;;9.67;9.00;;;;;10.66;59.63;101863.78;2063469;28;47886;-57
2022/02/22 04:19:54;;;;;;;;;12.33;11.67;;;;;10.66;59.69;101853.16;2042592;28;48055;-55
2022/02/22 04:20:54;;;;;;;;;13.67;10.33;;;;;10.65;59.89;101860.25;2033884;28;47920;-57
2022/02/22 04:21:54;;;;;;;;;10.67;8.00;;;;;10.64;59.79;101858.47;2055320;28;47345;-56
2022/02/22 04:22:55;;;;;;;;;11.00;9.00;;;;;10.66;59.49;101866.44;2063509;28;47816;-56
2022/02/22 04:23:55;;;;;;;;;21.00;9.67;;;;;10.65;59.79;101856.72;2063518;28;47430;-58
2022/02/22 04:24:56;;;;;;;;;13.00;7.67;;;;;10.66;59.85;101861.13;2063392;28;48143;-56
2022/02/22 04:25:56;;;;;;;;;12.00;8.00;;;;;10.67;59.92;101862.88;2063006;28;47204;-56
2022/02/22 04:26:56;;;;;;;;;14.33;8.67;;;;;10.68;60.12;101873.53;2065893;28;48012;-59
2022/02/22 04:27:57;;;;;;;;;9.00;7.00;;;;;10.68;60.04;101865.56;2064266;28;47549;-57
2022/02/22 04:29:00;;;;;;;;;11.67;10.33;;;;;10.66;59.83;101872.63;2063317;28;47845;-58
2022/02/22 04:30:01;;;;;;;;;15.00;11.50;;;;;10.65;59.68;101868.22;2059525;28;48162;-58
2022/02/22 04:31:02;;;;;;;;;6.67;5.00;;;;;10.65;59.99;101878.81;2061711;28;47309;-58
2022/02/22 04:32:04;;;;;;;;;8.00;5.00;;;;;10.65;60.07;101876.16;2063206;28;47873;-59
2022/02/22 04:33:04;;;;;;;;;10.50;10.50;;;;;10.65;59.96;101877.94;2063352;28;47710;-57
2022/02/22 04:34:06;;;;;;;;;10.67;6.33;;;;;10.65;59.98;101881.47;2063569;28;47652;-58
2022/02/22 04:35:07;;;;;;;;;10.75;10.75;;;;;10.65;59.87;101878.81;2063304;28;47726;-57
2022/02/22 04:36:09;;;;;;;;;8.25;8.25;;;;;10.65;59.64;101883.25;2063296;28;47864;-56
2022/02/22 04:37:16;;;;;;;;;7.50;7.50;;;;;10.65;59.93;101884.13;2063345;28;47662;-57
2022/02/22 04:38:16;;;;;;;;;14.25;9.50;;;;;10.66;60.14;101885.91;2054984;28;48193;-58
2022/02/22 04:39:17;;;;;;;;;10.67;10.00;;;;;10.67;59.78;101886.78;2055959;28;47977;-56
2022/02/22 04:40:17;;;;;;;;;18.00;10.00;;;;;10.67;60.16;101881.47;2063010;28;47415;-56